sensor_id;sensor_type;location;lat;lon;timestamp;temperature;humidity
23683;DHT22;24897;53.514;10.482;2022-12-18T00:05:00;-4.30;99.90
23683;DHT22;24897;53.514;10.482;2022-12-18T00:07:45;-4.30;99.90
23683;DHT22;24897;53.514;10.482;2022-12-18T00:10:29;-4.40;99.90
23683;DHT22;24897;53.514;10.482;2022-12-18T00:13:13;-4.40;99.90
23683;DHT22;24897;53.514;10.482;2022-12-18T00:16:02;-4.40;99.90
23683;DHT22;24897;53.514;10.482;2022-12-18T00:18:52;-4.40;99.90
23683;DHT22;24897;53.514;10.482;2022-12-18T00:21:37;-4.40;99.90
23683;DHT22;24897;53.514;10.482;2022-12-18T00:24:21;-4.50;99.90
23683;DHT22;24897;53.514;10.482;2022-12-18T00:27:05;-4.60;99.90
23683;DHT22;24897;53.514;10.482;2022-12-18T00:29:49;-4.10;99.90
23683;DHT22;24897;53.514;10.482;2022-12-18T00:32:33;-4.70;99.90
23683;DHT22;24897;53.514;10.482;2022-12-18T00:35:17;-4.60;99.90
23683;DHT22;24897;53.514;10.482;2022-12-18T00:38:02;-4.60;99.90
23683;DHT22;24897;53.514;10.482;2022-12-18T00:40:48;-4.60;99.90
23683;DHT22;24897;53.514;10.482;2022-12-18T00:43:33;-5.10;99.90
23683;DHT22;24897;53.514;10.482;2022-12-18T00:46:17;-5.00;99.90
23683;DHT22;24897;53.514;10.482;2022-12-18T00:49:02;-3.90;99.90
23683;DHT22;24897;53.514;10.482;2022-12-18T00:51:47;-4.30;99.90
23683;DHT22;24897;53.514;10.482;2022-12-18T00:54:31;-4.70;99.90
23683;DHT22;24897;53.514;10.482;2022-12-18T00:57:15;-4.20;99.90
23683;DHT22;24897;53.514;10.482;2022-12-18T00:59:59;-4.50;99.90
23683;DHT22;24897;53.514;10.482;2022-12-18T01:02:44;-4.10;99.90
23683;DHT22;24897;53.514;10.482;2022-12-18T01:08:13;-4.70;99.90
23683;DHT22;24897;53.514;10.482;2022-12-18T01:10:57;-4.60;99.90
23683;DHT22;24897;53.514;10.482;2022-12-18T01:13:41;-4.00;99.90
23683;DHT22;24897;53.514;10.482;2022-12-18T01:16:25;-4.20;99.90
23683;DHT22;24897;53.514;10.482;2022-12-18T01:19:09;-4.80;99.90
23683;DHT22;24897;53.514;10.482;2022-12-18T01:21:53;-3.60;99.90
23683;DHT22;24897;53.514;10.482;2022-12-18T01:24:38;-3.60;99.90
23683;DHT22;24897;53.514;10.482;2022-12-18T01:27:22;-4.40;99.90
23683;DHT22;24897;53.514;10.482;2022-12-18T01:30:06;-4.10;99.90
23683;DHT22;24897;53.514;10.482;2022-12-18T01:32:51;-4.60;99.90
23683;DHT22;24897;53.514;10.482;2022-12-18T01:35:45;-4.70;99.90
23683;DHT22;24897;53.514;10.482;2022-12-18T01:38:30;-5.40;99.90
23683;DHT22;24897;53.514;10.482;2022-12-18T01:41:17;-4.80;99.90
23683;DHT22;24897;53.514;10.482;2022-12-18T01:44:01;-4.80;99.90
23683;DHT22;24897;53.514;10.482;2022-12-18T01:46:46;-4.80;99.90
23683;DHT22;24897;53.514;10.482;2022-12-18T01:52:15;-5.00;99.90
23683;DHT22;24897;53.514;10.482;2022-12-18T01:55:02;-4.80;99.90
23683;DHT22;24897;53.514;10.482;2022-12-18T01:57:48;-4.80;99.90
23683;DHT22;24897;53.514;10.482;2022-12-18T02:00:34;-3.50;99.90
23683;DHT22;24897;53.514;10.482;2022-12-18T02:06:27;-4.60;99.90
23683;DHT22;24897;53.514;10.482;2022-12-18T02:09:28;-4.60;99.90
23683;DHT22;24897;53.514;10.482;2022-12-18T02:12:21;-4.90;99.90
23683;DHT22;24897;53.514;10.482;2022-12-18T02:18:10;-4.40;99.90
23683;DHT22;24897;53.514;10.482;2022-12-18T02:24:28;-3.30;99.90
23683;DHT22;24897;53.514;10.482;2022-12-18T02:27:13;-4.90;99.90
23683;DHT22;24897;53.514;10.482;2022-12-18T02:29:59;-4.90;99.90
23683;DHT22;24897;53.514;10.482;2022-12-18T02:32:50;-4.90;99.90
23683;DHT22;24897;53.514;10.482;2022-12-18T02:35:36;-5.00;99.90
23683;DHT22;24897;53.514;10.482;2022-12-18T02:38:21;-5.00;99.90
23683;DHT22;24897;53.514;10.482;2022-12-18T02:41:07;-5.20;99.90
23683;DHT22;24897;53.514;10.482;2022-12-18T02:43:57;-5.20;99.90
23683;DHT22;24897;53.514;10.482;2022-12-18T02:46:50;-3.00;99.90
23683;DHT22;24897;53.514;10.482;2022-12-18T02:49:58;-5.60;99.90
23683;DHT22;24897;53.514;10.482;2022-12-18T02:56:03;-5.30;99.90
23683;DHT22;24897;53.514;10.482;2022-12-18T02:59:00;-5.50;99.90
23683;DHT22;24897;53.514;10.482;2022-12-18T03:01:52;-5.40;99.90
23683;DHT22;24897;53.514;10.482;2022-12-18T03:07:44;-4.80;99.90
23683;DHT22;24897;53.514;10.482;2022-12-18T03:10:33;-5.50;99.90
23683;DHT22;24897;53.514;10.482;2022-12-18T03:13:37;-5.40;99.90
23683;DHT22;24897;53.514;10.482;2022-12-18T03:16:26;-4.80;99.90
23683;DHT22;24897;53.514;10.482;2022-12-18T03:19:16;-5.50;99.90
23683;DHT22;24897;53.514;10.482;2022-12-18T03:22:02;-5.50;99.90
23683;DHT22;24897;53.514;10.482;2022-12-18T03:24:48;-5.60;99.90
23683;DHT22;24897;53.514;10.482;2022-12-18T03:27:33;-5.60;99.90
23683;DHT22;24897;53.514;10.482;2022-12-18T03:30:19;-5.50;99.90
23683;DHT22;24897;53.514;10.482;2022-12-18T03:33:10;-5.60;99.90
23683;DHT22;24897;53.514;10.482;2022-12-18T03:35:56;-5.60;99.90
23683;DHT22;24897;53.514;10.482;2022-12-18T03:38:40;-5.20;99.90
23683;DHT22;24897;53.514;10.482;2022-12-18T03:41:43;-5.70;99.90
23683;DHT22;24897;53.514;10.482;2022-12-18T03:47:57;-5.80;99.90
23683;DHT22;24897;53.514;10.482;2022-12-18T03:50:50;-5.80;99.90
23683;DHT22;24897;53.514;10.482;2022-12-18T03:53:59;-5.90;99.90
23683;DHT22;24897;53.514;10.482;2022-12-18T03:56:55;-6.00;99.90
23683;DHT22;24897;53.514;10.482;2022-12-18T03:59:41;-5.90;99.90
23683;DHT22;24897;53.514;10.482;2022-12-18T04:02:27;-5.40;99.90
23683;DHT22;24897;53.514;10.482;2022-12-18T04:05:14;-6.90;99.90
23683;DHT22;24897;53.514;10.482;2022-12-18T04:08:00;-7.20;99.90
23683;DHT22;24897;53.514;10.482;2022-12-18T04:10:45;-6.10;99.90
23683;DHT22;24897;53.514;10.482;2022-12-18T04:13:33;-4.90;99.90
23683;DHT22;24897;53.514;10.482;2022-12-18T04:16:17;-4.40;99.90
23683;DHT22;24897;53.514;10.482;2022-12-18T04:19:02;-4.50;99.90
23683;DHT22;24897;53.514;10.482;2022-12-18T04:21:46;-5.80;99.90
23683;DHT22;24897;53.514;10.482;2022-12-18T04:24:30;-6.00;99.90
23683;DHT22;24897;53.514;10.482;2022-12-18T04:27:15;-6.10;99.90
23683;DHT22;24897;53.514;10.482;2022-12-18T04:30:00;-6.20;99.90
23683;DHT22;24897;53.514;10.482;2022-12-18T04:32:44;-6.00;99.90
23683;DHT22;24897;53.514;10.482;2022-12-18T04:35:29;-6.10;99.90
23683;DHT22;24897;53.514;10.482;2022-12-18T04:38:16;-6.70;99.90
23683;DHT22;24897;53.514;10.482;2022-12-18T04:41:00;-6.60;99.90
23683;DHT22;24897;53.514;10.482;2022-12-18T04:43:44;-6.10;99.90
23683;DHT22;24897;53.514;10.482;2022-12-18T04:46:28;-6.30;99.90
23683;DHT22;24897;53.514;10.482;2022-12-18T04:49:13;-6.10;99.90
23683;DHT22;24897;53.514;10.482;2022-12-18T04:51:57;-6.10;99.90
23683;DHT22;24897;53.514;10.482;2022-12-18T04:54:41;-5.20;99.90
23683;DHT22;24897;53.514;10.482;2022-12-18T04:57:25;-6.10;99.90
23683;DHT22;24897;53.514;10.482;2022-12-18T05:00:10;-6.10;99.90
23683;DHT22;24897;53.514;10.482;2022-12-18T05:02:55;-6.10;99.90
23683;DHT22;24897;53.514;10.482;2022-12-18T05:05:39;-7.30;99.90
23683;DHT22;24897;53.514;10.482;2022-12-18T05:08:23;-7.20;99.90
23683;DHT22;24897;53.514;10.482;2022-12-18T05:11:13;-6.20;99.90
23683;DHT22;24897;53.514;10.482;2022-12-18T05:16:44;-6.10;99.90
23683;DHT22;24897;53.514;10.482;2022-12-18T05:19:28;-6.60;99.90
23683;DHT22;24897;53.514;10.482;2022-12-18T05:22:12;-5.30;99.90
23683;DHT22;24897;53.514;10.482;2022-12-18T05:24:56;-5.90;99.90
23683;DHT22;24897;53.514;10.482;2022-12-18T05:27:41;-6.70;99.90
23683;DHT22;24897;53.514;10.482;2022-12-18T05:30:26;-5.60;99.90
23683;DHT22;24897;53.514;10.482;2022-12-18T05:33:10;-6.40;99.90
23683;DHT22;24897;53.514;10.482;2022-12-18T05:35:56;-6.40;99.90
23683;DHT22;24897;53.514;10.482;2022-12-18T05:38:41;-6.80;99.90
23683;DHT22;24897;53.514;10.482;2022-12-18T05:41:26;-4.90;99.90
23683;DHT22;24897;53.514;10.482;2022-12-18T05:44:10;-6.10;99.90
23683;DHT22;24897;53.514;10.482;2022-12-18T05:46:54;-5.10;99.90
23683;DHT22;24897;53.514;10.482;2022-12-18T05:52:23;-6.50;99.90
23683;DHT22;24897;53.514;10.482;2022-12-18T05:57:53;-5.60;99.90
23683;DHT22;24897;53.514;10.482;2022-12-18T06:00:42;-7.00;99.90
23683;DHT22;24897;53.514;10.482;2022-12-18T06:03:26;-6.40;99.90
23683;DHT22;24897;53.514;10.482;2022-12-18T06:09:03;-6.40;99.90
23683;DHT22;24897;53.514;10.482;2022-12-18T06:11:52;-5.30;99.90
23683;DHT22;24897;53.514;10.482;2022-12-18T06:14:36;-6.50;99.90
23683;DHT22;24897;53.514;10.482;2022-12-18T06:17:21;-6.90;99.90
23683;DHT22;24897;53.514;10.482;2022-12-18T06:20:05;-6.60;99.90
23683;DHT22;24897;53.514;10.482;2022-12-18T06:22:51;-5.70;99.90
23683;DHT22;24897;53.514;10.482;2022-12-18T06:25:38;-6.60;99.90
23683;DHT22;24897;53.514;10.482;2022-12-18T06:28:22;-6.60;99.90
23683;DHT22;24897;53.514;10.482;2022-12-18T06:31:08;-6.70;99.90
23683;DHT22;24897;53.514;10.482;2022-12-18T06:33:53;-6.70;99.90
23683;DHT22;24897;53.514;10.482;2022-12-18T06:36:37;-6.70;99.90
23683;DHT22;24897;53.514;10.482;2022-12-18T06:39:21;-5.40;99.90
23683;DHT22;24897;53.514;10.482;2022-12-18T06:42:05;-7.20;99.90
23683;DHT22;24897;53.514;10.482;2022-12-18T06:44:49;-6.70;99.90
23683;DHT22;24897;53.514;10.482;2022-12-18T06:47:34;-6.60;99.90
23683;DHT22;24897;53.514;10.482;2022-12-18T06:50:18;-6.70;99.90
23683;DHT22;24897;53.514;10.482;2022-12-18T06:53:02;-6.70;99.90
23683;DHT22;24897;53.514;10.482;2022-12-18T06:55:48;-6.70;99.90
23683;DHT22;24897;53.514;10.482;2022-12-18T06:58:33;-6.70;99.90
23683;DHT22;24897;53.514;10.482;2022-12-18T07:01:18;-6.80;99.90
23683;DHT22;24897;53.514;10.482;2022-12-18T07:04:02;-6.90;99.90
23683;DHT22;24897;53.514;10.482;2022-12-18T07:06:46;-7.00;99.90
23683;DHT22;24897;53.514;10.482;2022-12-18T07:09:30;-6.80;99.90
23683;DHT22;24897;53.514;10.482;2022-12-18T07:12:14;-7.10;99.90
23683;DHT22;24897;53.514;10.482;2022-12-18T07:14:58;-6.90;99.90
23683;DHT22;24897;53.514;10.482;2022-12-18T07:20:27;-5.60;99.90
23683;DHT22;24897;53.514;10.482;2022-12-18T07:23:11;-6.90;99.90
23683;DHT22;24897;53.514;10.482;2022-12-18T07:28:47;-7.00;99.90
23683;DHT22;24897;53.514;10.482;2022-12-18T07:31:32;-7.00;99.90
23683;DHT22;24897;53.514;10.482;2022-12-18T07:34:16;-7.00;99.90
23683;DHT22;24897;53.514;10.482;2022-12-18T07:37:00;-7.00;99.90
23683;DHT22;24897;53.514;10.482;2022-12-18T07:39:45;-6.90;99.90
23683;DHT22;24897;53.514;10.482;2022-12-18T07:42:29;-6.90;99.90
23683;DHT22;24897;53.514;10.482;2022-12-18T07:45:16;-6.80;99.90
23683;DHT22;24897;53.514;10.482;2022-12-18T07:48:00;-6.80;99.90
23683;DHT22;24897;53.514;10.482;2022-12-18T07:50:44;-5.40;99.90
23683;DHT22;24897;53.514;10.482;2022-12-18T07:53:28;-6.80;99.90
23683;DHT22;24897;53.514;10.482;2022-12-18T07:56:12;-6.80;99.90
23683;DHT22;24897;53.514;10.482;2022-12-18T07:58:58;-6.80;99.90
23683;DHT22;24897;53.514;10.482;2022-12-18T08:01:43;-6.90;99.90
23683;DHT22;24897;53.514;10.482;2022-12-18T08:04:30;-6.60;99.90
23683;DHT22;24897;53.514;10.482;2022-12-18T08:07:14;-6.60;99.90
23683;DHT22;24897;53.514;10.482;2022-12-18T08:09:58;-6.80;99.90
23683;DHT22;24897;53.514;10.482;2022-12-18T08:12:43;-6.40;99.90
23683;DHT22;24897;53.514;10.482;2022-12-18T08:15:27;-6.40;99.90
23683;DHT22;24897;53.514;10.482;2022-12-18T08:18:11;-6.20;99.90
23683;DHT22;24897;53.514;10.482;2022-12-18T08:20:56;-6.40;99.90
23683;DHT22;24897;53.514;10.482;2022-12-18T08:23:41;-6.40;99.90
23683;DHT22;24897;53.514;10.482;2022-12-18T08:26:27;-6.10;99.90
23683;DHT22;24897;53.514;10.482;2022-12-18T08:29:12;-6.10;99.90
23683;DHT22;24897;53.514;10.482;2022-12-18T08:31:56;-6.00;99.90
23683;DHT22;24897;53.514;10.482;2022-12-18T08:34:40;-5.90;99.90
23683;DHT22;24897;53.514;10.482;2022-12-18T08:37:24;-5.90;99.90
23683;DHT22;24897;53.514;10.482;2022-12-18T08:40:09;-5.80;99.90
23683;DHT22;24897;53.514;10.482;2022-12-18T08:42:53;-5.70;99.90
23683;DHT22;24897;53.514;10.482;2022-12-18T08:45:56;-5.60;99.90
23683;DHT22;24897;53.514;10.482;2022-12-18T08:48:41;-5.30;99.90
23683;DHT22;24897;53.514;10.482;2022-12-18T08:51:25;-5.60;99.90
23683;DHT22;24897;53.514;10.482;2022-12-18T08:54:11;-5.50;99.90
23683;DHT22;24897;53.514;10.482;2022-12-18T08:56:56;-5.50;99.90
23683;DHT22;24897;53.514;10.482;2022-12-18T08:59:44;-4.70;99.90
23683;DHT22;24897;53.514;10.482;2022-12-18T09:02:28;-5.30;99.90
23683;DHT22;24897;53.514;10.482;2022-12-18T09:05:12;-6.80;99.90
23683;DHT22;24897;53.514;10.482;2022-12-18T09:07:56;-4.20;99.90
23683;DHT22;24897;53.514;10.482;2022-12-18T09:10:48;-3.90;99.90
23683;DHT22;24897;53.514;10.482;2022-12-18T09:16:18;-4.70;99.90
23683;DHT22;24897;53.514;10.482;2022-12-18T09:19:04;-4.90;99.90
23683;DHT22;24897;53.514;10.482;2022-12-18T09:21:49;-4.80;99.90
23683;DHT22;24897;53.514;10.482;2022-12-18T09:32:48;-5.00;99.90
23683;DHT22;24897;53.514;10.482;2022-12-18T09:38:19;-4.60;99.90
23683;DHT22;24897;53.514;10.482;2022-12-18T09:50:06;-3.90;99.90
23683;DHT22;24897;53.514;10.482;2022-12-18T09:52:59;-3.40;99.90
23683;DHT22;24897;53.514;10.482;2022-12-18T09:55:47;-3.90;99.90
23683;DHT22;24897;53.514;10.482;2022-12-18T09:58:41;-3.80;99.90
23683;DHT22;24897;53.514;10.482;2022-12-18T10:01:29;-4.00;99.90
23683;DHT22;24897;53.514;10.482;2022-12-18T10:04:14;-3.10;99.90
23683;DHT22;24897;53.514;10.482;2022-12-18T10:10:32;-3.80;99.90
23683;DHT22;24897;53.514;10.482;2022-12-18T10:13:36;-3.30;99.90
23683;DHT22;24897;53.514;10.482;2022-12-18T10:16:25;-2.60;99.90
23683;DHT22;24897;53.514;10.482;2022-12-18T10:25:15;-2.60;99.90
23683;DHT22;24897;53.514;10.482;2022-12-18T10:28:11;-3.20;99.90
23683;DHT22;24897;53.514;10.482;2022-12-18T10:30:56;-2.90;99.90
23683;DHT22;24897;53.514;10.482;2022-12-18T10:33:40;-2.30;99.90
23683;DHT22;24897;53.514;10.482;2022-12-18T10:36:25;-2.70;99.90
23683;DHT22;24897;53.514;10.482;2022-12-18T10:39:20;-2.60;99.90
23683;DHT22;24897;53.514;10.482;2022-12-18T10:42:19;-1.90;99.90
23683;DHT22;24897;53.514;10.482;2022-12-18T10:45:11;-2.70;99.90
23683;DHT22;24897;53.514;10.482;2022-12-18T10:47:55;-2.60;99.90
23683;DHT22;24897;53.514;10.482;2022-12-18T10:50:40;-2.50;99.90
23683;DHT22;24897;53.514;10.482;2022-12-18T10:53:30;-2.40;99.90
23683;DHT22;24897;53.514;10.482;2022-12-18T10:56:19;-2.30;99.90
23683;DHT22;24897;53.514;10.482;2022-12-18T10:59:06;-2.90;99.90
23683;DHT22;24897;53.514;10.482;2022-12-18T11:01:57;-1.20;99.90
23683;DHT22;24897;53.514;10.482;2022-12-18T11:04:51;-1.50;99.90
23683;DHT22;24897;53.514;10.482;2022-12-18T11:07:48;-2.30;99.90
23683;DHT22;24897;53.514;10.482;2022-12-18T11:10:36;-1.00;99.90
23683;DHT22;24897;53.514;10.482;2022-12-18T11:13:22;-0.70;99.90
23683;DHT22;24897;53.514;10.482;2022-12-18T11:16:07;0.10;99.90
23683;DHT22;24897;53.514;10.482;2022-12-18T11:22:20;2.60;99.90
23683;DHT22;24897;53.514;10.482;2022-12-18T11:28:00;3.20;99.90
23683;DHT22;24897;53.514;10.482;2022-12-18T11:30:45;3.20;99.90
23683;DHT22;24897;53.514;10.482;2022-12-18T11:33:30;4.00;99.90
23683;DHT22;24897;53.514;10.482;2022-12-18T11:36:14;2.90;99.90
23683;DHT22;24897;53.514;10.482;2022-12-18T11:39:07;2.40;99.90
23683;DHT22;24897;53.514;10.482;2022-12-18T11:42:23;2.10;99.90
23683;DHT22;24897;53.514;10.482;2022-12-18T11:50:59;0.80;99.90
23683;DHT22;24897;53.514;10.482;2022-12-18T11:53:43;0.10;99.90
23683;DHT22;24897;53.514;10.482;2022-12-18T12:08:23;-0.50;99.90
23683;DHT22;24897;53.514;10.482;2022-12-18T12:23:20;1.70;99.90
23683;DHT22;24897;53.514;10.482;2022-12-18T12:29:35;0.20;99.90
23683;DHT22;24897;53.514;10.482;2022-12-18T12:32:33;1.80;99.90
23683;DHT22;24897;53.514;10.482;2022-12-18T12:38:25;-1.20;99.90
23683;DHT22;24897;53.514;10.482;2022-12-18T12:41:13;-1.10;99.90
23683;DHT22;24897;53.514;10.482;2022-12-18T12:44:33;-1.20;99.90
23683;DHT22;24897;53.514;10.482;2022-12-18T12:47:22;-1.50;99.90
23683;DHT22;24897;53.514;10.482;2022-12-18T12:50:17;-1.10;99.90
23683;DHT22;24897;53.514;10.482;2022-12-18T12:53:06;-2.30;99.90
23683;DHT22;24897;53.514;10.482;2022-12-18T12:55:52;-1.40;99.90
23683;DHT22;24897;53.514;10.482;2022-12-18T13:01:53;-1.50;99.90
23683;DHT22;24897;53.514;10.482;2022-12-18T13:04:44;-1.00;99.90
23683;DHT22;24897;53.514;10.482;2022-12-18T13:07:47;-0.20;99.90
23683;DHT22;24897;53.514;10.482;2022-12-18T13:10:41;-0.20;99.90
23683;DHT22;24897;53.514;10.482;2022-12-18T13:16:33;-0.30;99.90
23683;DHT22;24897;53.514;10.482;2022-12-18T13:19:23;-1.40;99.90
23683;DHT22;24897;53.514;10.482;2022-12-18T13:22:34;-2.10;99.90
23683;DHT22;24897;53.514;10.482;2022-12-18T13:25:38;-0.40;99.90
23683;DHT22;24897;53.514;10.482;2022-12-18T13:34:28;-1.50;99.90
23683;DHT22;24897;53.514;10.482;2022-12-18T13:46:30;-1.70;99.90
23683;DHT22;24897;53.514;10.482;2022-12-18T13:49:44;-1.70;99.90
23683;DHT22;24897;53.514;10.482;2022-12-18T13:52:33;-2.00;99.90
23683;DHT22;24897;53.514;10.482;2022-12-18T13:55:19;-1.70;99.90
23683;DHT22;24897;53.514;10.482;2022-12-18T13:58:05;-1.40;99.90
23683;DHT22;24897;53.514;10.482;2022-12-18T14:00:50;-1.50;99.90
23683;DHT22;24897;53.514;10.482;2022-12-18T14:03:34;-2.20;99.90
23683;DHT22;24897;53.514;10.482;2022-12-18T14:06:19;-1.50;99.90
23683;DHT22;24897;53.514;10.482;2022-12-18T14:09:04;-2.30;99.90
23683;DHT22;24897;53.514;10.482;2022-12-18T14:11:50;-2.30;99.90
23683;DHT22;24897;53.514;10.482;2022-12-18T14:14:34;-2.40;99.90
23683;DHT22;24897;53.514;10.482;2022-12-18T14:17:18;-2.60;99.90
23683;DHT22;24897;53.514;10.482;2022-12-18T14:20:04;-2.30;99.90
23683;DHT22;24897;53.514;10.482;2022-12-18T14:22:57;-2.60;99.90
23683;DHT22;24897;53.514;10.482;2022-12-18T14:25:45;-2.70;99.90
23683;DHT22;24897;53.514;10.482;2022-12-18T14:28:30;-2.70;99.90
23683;DHT22;24897;53.514;10.482;2022-12-18T14:31:25;-2.70;99.90
23683;DHT22;24897;53.514;10.482;2022-12-18T14:34:17;-2.40;99.90
23683;DHT22;24897;53.514;10.482;2022-12-18T14:37:01;-2.20;99.90
23683;DHT22;24897;53.514;10.482;2022-12-18T14:40:12;-2.80;99.90
23683;DHT22;24897;53.514;10.482;2022-12-18T14:42:56;-2.90;99.90
23683;DHT22;24897;53.514;10.482;2022-12-18T14:45:43;-2.90;99.90
23683;DHT22;24897;53.514;10.482;2022-12-18T14:48:40;-2.90;99.90
23683;DHT22;24897;53.514;10.482;2022-12-18T14:51:27;-3.00;99.90
23683;DHT22;24897;53.514;10.482;2022-12-18T14:54:16;-3.00;99.90
23683;DHT22;24897;53.514;10.482;2022-12-18T14:57:21;-3.30;99.90
23683;DHT22;24897;53.514;10.482;2022-12-18T15:00:14;-2.50;99.90
23683;DHT22;24897;53.514;10.482;2022-12-18T15:03:00;-2.90;99.90
23683;DHT22;24897;53.514;10.482;2022-12-18T15:05:44;-2.50;99.90
23683;DHT22;24897;53.514;10.482;2022-12-18T15:08:36;-3.40;99.90
23683;DHT22;24897;53.514;10.482;2022-12-18T15:11:33;-2.70;99.90
23683;DHT22;24897;53.514;10.482;2022-12-18T15:14:23;-2.50;99.90
23683;DHT22;24897;53.514;10.482;2022-12-18T15:17:22;-2.60;99.90
23683;DHT22;24897;53.514;10.482;2022-12-18T15:20:10;-2.50;99.90
23683;DHT22;24897;53.514;10.482;2022-12-18T15:22:55;-2.50;99.90
23683;DHT22;24897;53.514;10.482;2022-12-18T15:25:39;-3.20;99.90
23683;DHT22;24897;53.514;10.482;2022-12-18T15:31:31;-2.80;99.90
23683;DHT22;24897;53.514;10.482;2022-12-18T15:34:23;-2.70;99.90
23683;DHT22;24897;53.514;10.482;2022-12-18T15:37:09;-2.60;99.90
23683;DHT22;24897;53.514;10.482;2022-12-18T15:39:53;-2.70;99.90
23683;DHT22;24897;53.514;10.482;2022-12-18T15:42:37;-4.10;99.90
23683;DHT22;24897;53.514;10.482;2022-12-18T15:48:25;-3.00;99.90
23683;DHT22;24897;53.514;10.482;2022-12-18T15:51:21;-2.30;99.90
23683;DHT22;24897;53.514;10.482;2022-12-18T15:54:11;-3.20;99.90
23683;DHT22;24897;53.514;10.482;2022-12-18T15:56:57;-4.20;99.90
23683;DHT22;24897;53.514;10.482;2022-12-18T16:00:00;-2.80;99.90
23683;DHT22;24897;53.514;10.482;2022-12-18T16:02:44;-3.30;99.90
23683;DHT22;24897;53.514;10.482;2022-12-18T16:05:28;-3.30;99.90
23683;DHT22;24897;53.514;10.482;2022-12-18T16:08:13;-3.40;99.90
23683;DHT22;24897;53.514;10.482;2022-12-18T16:10:57;-2.60;99.90
23683;DHT22;24897;53.514;10.482;2022-12-18T16:13:42;-3.30;99.90
23683;DHT22;24897;53.514;10.482;2022-12-18T16:16:26;-3.30;99.90
23683;DHT22;24897;53.514;10.482;2022-12-18T16:19:10;-3.00;99.90
23683;DHT22;24897;53.514;10.482;2022-12-18T16:21:55;-2.60;99.90
23683;DHT22;24897;53.514;10.482;2022-12-18T16:24:39;-3.20;99.90
23683;DHT22;24897;53.514;10.482;2022-12-18T16:27:24;-2.90;99.90
23683;DHT22;24897;53.514;10.482;2022-12-18T16:30:14;-2.50;99.90
23683;DHT22;24897;53.514;10.482;2022-12-18T16:32:59;-3.20;99.90
23683;DHT22;24897;53.514;10.482;2022-12-18T16:35:51;-3.10;99.90
23683;DHT22;24897;53.514;10.482;2022-12-18T16:38:35;-3.00;99.90
23683;DHT22;24897;53.514;10.482;2022-12-18T16:41:19;-3.00;99.90
23683;DHT22;24897;53.514;10.482;2022-12-18T16:44:16;-3.30;99.90
23683;DHT22;24897;53.514;10.482;2022-12-18T16:47:00;-2.30;99.90
23683;DHT22;24897;53.514;10.482;2022-12-18T16:49:46;-2.90;99.90
23683;DHT22;24897;53.514;10.482;2022-12-18T16:52:30;-2.30;99.90
23683;DHT22;24897;53.514;10.482;2022-12-18T16:55:15;-2.20;99.90
23683;DHT22;24897;53.514;10.482;2022-12-18T16:57:59;-2.20;99.90
23683;DHT22;24897;53.514;10.482;2022-12-18T17:00:44;-2.90;99.90
23683;DHT22;24897;53.514;10.482;2022-12-18T17:03:28;-1.80;99.90
23683;DHT22;24897;53.514;10.482;2022-12-18T17:06:12;-2.80;99.90
23683;DHT22;24897;53.514;10.482;2022-12-18T17:09:03;-2.80;99.90
23683;DHT22;24897;53.514;10.482;2022-12-18T17:11:48;-2.50;99.90
23683;DHT22;24897;53.514;10.482;2022-12-18T17:14:33;-2.50;99.90
23683;DHT22;24897;53.514;10.482;2022-12-18T17:17:17;-2.40;99.90
23683;DHT22;24897;53.514;10.482;2022-12-18T17:20:02;-2.60;99.90
23683;DHT22;24897;53.514;10.482;2022-12-18T17:22:47;-2.60;99.90
23683;DHT22;24897;53.514;10.482;2022-12-18T17:25:31;-2.70;99.90
23683;DHT22;24897;53.514;10.482;2022-12-18T17:28:15;-2.20;99.90
23683;DHT22;24897;53.514;10.482;2022-12-18T17:31:00;-2.60;99.90
23683;DHT22;24897;53.514;10.482;2022-12-18T17:33:44;-2.30;99.90
23683;DHT22;24897;53.514;10.482;2022-12-18T17:36:29;-2.60;99.90
23683;DHT22;24897;53.514;10.482;2022-12-18T17:39:17;-2.60;99.90
23683;DHT22;24897;53.514;10.482;2022-12-18T17:42:02;-2.10;99.90
23683;DHT22;24897;53.514;10.482;2022-12-18T17:44:47;-2.60;99.90
23683;DHT22;24897;53.514;10.482;2022-12-18T17:47:31;-2.60;99.90
23683;DHT22;24897;53.514;10.482;2022-12-18T17:50:16;-2.10;99.90
23683;DHT22;24897;53.514;10.482;2022-12-18T17:53:01;-2.60;99.90
23683;DHT22;24897;53.514;10.482;2022-12-18T17:55:56;-2.60;99.90
23683;DHT22;24897;53.514;10.482;2022-12-18T17:58:41;-2.60;99.90
23683;DHT22;24897;53.514;10.482;2022-12-18T18:01:26;-2.00;99.90
23683;DHT22;24897;53.514;10.482;2022-12-18T18:06:54;-2.60;99.90
23683;DHT22;24897;53.514;10.482;2022-12-18T18:09:38;-2.50;99.90
23683;DHT22;24897;53.514;10.482;2022-12-18T18:12:22;-2.50;99.90
23683;DHT22;24897;53.514;10.482;2022-12-18T18:15:25;-2.50;99.90
23683;DHT22;24897;53.514;10.482;2022-12-18T18:18:09;-2.50;99.90
23683;DHT22;24897;53.514;10.482;2022-12-18T18:20:53;-2.50;99.90
23683;DHT22;24897;53.514;10.482;2022-12-18T18:23:37;-2.50;99.90
23683;DHT22;24897;53.514;10.482;2022-12-18T18:26:22;-2.10;99.90
23683;DHT22;24897;53.514;10.482;2022-12-18T18:29:07;-2.50;99.90
23683;DHT22;24897;53.514;10.482;2022-12-18T18:31:52;-2.50;99.90
23683;DHT22;24897;53.514;10.482;2022-12-18T18:34:36;-2.40;99.90
23683;DHT22;24897;53.514;10.482;2022-12-18T18:37:21;-2.10;99.90
23683;DHT22;24897;53.514;10.482;2022-12-18T18:42:50;-2.10;99.90
23683;DHT22;24897;53.514;10.482;2022-12-18T18:45:34;-3.10;99.90
23683;DHT22;24897;53.514;10.482;2022-12-18T18:48:19;-2.50;99.90
23683;DHT22;24897;53.514;10.482;2022-12-18T18:51:09;-2.50;99.90
23683;DHT22;24897;53.514;10.482;2022-12-18T18:53:54;-2.40;99.90
23683;DHT22;24897;53.514;10.482;2022-12-18T18:56:38;-2.40;99.90
23683;DHT22;24897;53.514;10.482;2022-12-18T18:59:22;-2.40;99.90
23683;DHT22;24897;53.514;10.482;2022-12-18T19:02:13;-2.40;99.90
23683;DHT22;24897;53.514;10.482;2022-12-18T19:04:57;-1.80;99.90
23683;DHT22;24897;53.514;10.482;2022-12-18T19:07:42;-1.60;99.90
23683;DHT22;24897;53.514;10.482;2022-12-18T19:10:26;-2.40;99.90
23683;DHT22;24897;53.514;10.482;2022-12-18T19:13:12;-2.40;99.90
23683;DHT22;24897;53.514;10.482;2022-12-18T19:16:08;-2.50;99.90
23683;DHT22;24897;53.514;10.482;2022-12-18T19:18:54;-2.50;99.90
23683;DHT22;24897;53.514;10.482;2022-12-18T19:21:38;-1.70;99.90
23683;DHT22;24897;53.514;10.482;2022-12-18T19:24:22;-2.40;99.90
23683;DHT22;24897;53.514;10.482;2022-12-18T19:27:06;-2.40;99.90
23683;DHT22;24897;53.514;10.482;2022-12-18T19:29:51;-2.20;99.90
23683;DHT22;24897;53.514;10.482;2022-12-18T19:32:35;-2.50;99.90
23683;DHT22;24897;53.514;10.482;2022-12-18T19:35:19;-1.60;99.90
23683;DHT22;24897;53.514;10.482;2022-12-18T19:38:03;-1.80;99.90
23683;DHT22;24897;53.514;10.482;2022-12-18T19:43:33;-2.40;99.90
23683;DHT22;24897;53.514;10.482;2022-12-18T19:46:21;-2.10;99.90
23683;DHT22;24897;53.514;10.482;2022-12-18T19:49:06;-2.20;99.90
23683;DHT22;24897;53.514;10.482;2022-12-18T19:51:50;-2.90;99.90
23683;DHT22;24897;53.514;10.482;2022-12-18T19:54:34;-1.90;99.90
23683;DHT22;24897;53.514;10.482;2022-12-18T19:57:18;-2.40;99.90